createdAt,value
2022-09-22T00:01:07.179Z,100283.81
2022-09-22T00:03:57.674Z,100279.63
2022-09-22T00:06:47.638Z,100282.44
2022-09-22T00:09:34.916Z,100283.09
2022-09-22T00:12:22.062Z,100283.72
2022-09-22T00:15:11.908Z,100282.56
2022-09-22T00:17:59.287Z,100285.41
2022-09-22T00:20:46.569Z,100288.81
2022-09-22T00:23:33.782Z,100290.59
2022-09-22T00:26:23.678Z,100281.19
2022-09-22T00:29:14.504Z,100286.63
2022-09-22T00:32:07.361Z,100283.63
2022-09-22T00:34:54.879Z,100280.91
2022-09-22T00:37:42.166Z,100280.28
2022-09-22T00:40:29.763Z,100280.72
2022-09-22T00:43:21.546Z,100286.81
2022-09-22T00:46:19.307Z,100283.00
2022-09-22T00:49:09.966Z,100290.69
2022-09-22T00:51:57.415Z,100288.28
2022-09-22T00:54:44.812Z,100272.06
2022-09-22T00:57:35.940Z,100279.25
2022-09-22T01:00:23.352Z,100281.28
2022-09-22T01:03:16.910Z,100276.06
2022-09-22T01:06:09.450Z,100266.50
2022-09-22T01:08:57.920Z,100272.13
2022-09-22T01:11:45.316Z,100262.13
2022-09-22T01:14:52.898Z,100269.81
2022-09-22T01:18:02.267Z,100265.22
2022-09-22T01:21:20.459Z,100259.84
2022-09-22T01:24:50.872Z,100253.47
2022-09-22T01:28:18.017Z,100258.31
2022-09-22T01:31:11.868Z,100257.50
2022-09-22T01:34:08.854Z,100253.13
2022-09-22T01:37:09.476Z,100246.28
2022-09-22T01:40:02.601Z,100249.31
2022-09-22T01:42:56.811Z,100246.72
2022-09-22T01:45:46.565Z,100243.13
2022-09-22T01:48:38.037Z,100241.94
2022-09-22T01:51:29.000Z,100243.94
2022-09-22T01:54:21.722Z,100242.59
2022-09-22T01:57:19.468Z,100243.22
2022-09-22T02:00:11.148Z,100234.97
2022-09-22T02:03:07.540Z,100232.78
2022-09-22T02:06:01.727Z,100239.22
2022-09-22T02:08:55.398Z,100241.25
2022-09-22T02:11:44.020Z,100232.84
2022-09-22T02:14:32.060Z,100238.88
2022-09-22T02:17:19.874Z,100223.28
2022-09-22T02:20:07.825Z,100232.94
2022-09-22T02:22:57.154Z,100225.34
2022-09-22T02:25:46.120Z,100231.34
2022-09-22T02:28:37.862Z,100224.97
2022-09-22T02:31:28.719Z,100229.00
2022-09-22T02:34:16.525Z,100234.97
2022-09-22T02:37:11.576Z,100226.97
2022-09-22T02:40:09.060Z,100229.00
2022-09-22T02:43:05.895Z,100225.59
2022-09-22T02:45:59.328Z,100231.59
2022-09-22T02:48:51.226Z,100230.00
2022-09-22T02:51:39.022Z,100230.00
2022-09-22T02:54:26.424Z,100219.00
2022-09-22T02:57:15.217Z,100223.63
2022-09-22T03:00:03.692Z,100222.25
2022-09-22T03:02:51.259Z,100218.66
2022-09-22T03:05:38.824Z,100223.06
2022-09-22T03:08:26.471Z,100216.28
2022-09-22T03:11:13.728Z,100222.25
2022-09-22T03:14:02.438Z,100217.88
2022-09-22T03:16:49.768Z,100215.88
2022-09-22T03:19:37.129Z,100211.84
2022-09-22T03:22:24.559Z,100207.09
2022-09-22T03:25:13.050Z,100212.06
2022-09-22T03:28:00.531Z,100209.44
2022-09-22T03:30:49.456Z,100202.66
2022-09-22T03:33:37.151Z,100207.09
2022-09-22T03:36:24.567Z,100203.88
2022-09-22T03:39:11.790Z,100201.88
2022-09-22T03:41:59.174Z,100204.69
2022-09-22T03:44:46.499Z,100202.88
2022-09-22T03:47:35.026Z,100200.28
2022-09-22T03:50:22.886Z,100196.69
2022-09-22T03:53:10.207Z,100202.88
2022-09-22T03:56:07.152Z,100203.09
2022-09-22T03:58:54.568Z,100194.91
2022-09-22T04:01:42.613Z,100199.53
2022-09-22T04:04:32.583Z,100197.53
2022-09-22T04:07:19.934Z,100198.50
2022-09-22T04:10:09.064Z,100193.53
2022-09-22T04:12:56.700Z,100197.31
2022-09-22T04:15:44.257Z,100192.75
2022-09-22T04:18:31.783Z,100183.78
2022-09-22T04:21:20.924Z,100198.00
2022-09-22T04:24:11.292Z,100187.00
2022-09-22T04:30:07.980Z,100190.03
2022-09-22T04:32:55.489Z,100184.84
2022-09-22T04:35:42.986Z,100181.22
2022-09-22T04:38:32.003Z,100192.41
2022-09-22T04:41:19.851Z,100185.03
2022-09-22T04:44:07.086Z,100187.63
2022-09-22T04:46:55.947Z,100187.84
2022-09-22T04:49:43.360Z,100188.25
2022-09-22T04:52:30.728Z,100184.66
2022-09-22T04:55:21.067Z,100183.63
2022-09-22T04:58:08.707Z,100188.47
2022-09-22T05:00:56.672Z,100187.66
2022-09-22T05:03:44.427Z,100195.09
2022-09-22T05:06:32.124Z,100192.09
2022-09-22T05:09:20.828Z,100184.13
2022-09-22T05:12:09.657Z,100192.13
2022-09-22T05:15:00.312Z,100195.50
2022-09-22T05:17:48.787Z,100194.53
2022-09-22T05:20:36.183Z,100192.91
2022-09-22T05:23:23.588Z,100197.91
2022-09-22T05:26:11.028Z,100191.94
2022-09-22T05:28:59.848Z,100194.53
2022-09-22T05:31:47.362Z,100206.50
2022-09-22T05:34:34.741Z,100209.72
2022-09-22T05:37:22.299Z,100209.72
2022-09-22T05:40:11.319Z,100214.91
2022-09-22T05:42:58.940Z,100213.28
2022-09-22T05:45:47.751Z,100214.50
2022-09-22T05:48:35.255Z,100215.31
2022-09-22T05:51:22.709Z,100211.72
2022-09-22T05:54:11.134Z,100205.50
2022-09-22T05:56:58.477Z,100210.06
2022-09-22T05:59:45.753Z,100217.28
2022-09-22T06:02:34.713Z,100216.44
2022-09-22T06:05:03.817Z,100222.00
2022-09-22T06:07:32.863Z,100217.78
2022-09-22T06:10:01.803Z,100216.34
2022-09-22T06:12:30.965Z,100210.13
2022-09-22T06:14:59.913Z,100215.47
2022-09-22T06:17:28.891Z,100210.25
2022-09-22T06:20:00.822Z,100216.97
2022-09-22T06:22:29.785Z,100202.13
2022-09-22T06:24:58.796Z,100206.50
2022-09-22T06:27:27.763Z,100208.25
2022-09-22T06:29:57.051Z,100216.41
2022-09-22T06:32:26.042Z,100213.13
2022-09-22T06:34:56.116Z,100201.44
2022-09-22T06:37:26.432Z,100200.75
2022-09-22T06:39:55.416Z,100204.91
2022-09-22T06:42:24.475Z,100200.63
2022-09-22T06:44:53.995Z,100198.75
2022-09-22T06:47:23.789Z,100197.44
2022-09-22T06:49:53.610Z,100203.78
2022-09-22T06:52:22.590Z,100192.84
2022-09-22T06:54:56.753Z,100191.75
2022-09-22T06:57:27.956Z,100192.69
2022-09-22T06:59:56.933Z,100191.19
2022-09-22T07:02:29.447Z,100184.31
2022-09-22T07:04:59.157Z,100186.63
2022-09-22T07:07:28.932Z,100180.91
2022-09-22T07:10:00.395Z,100188.75
2022-09-22T07:12:29.996Z,100176.56
2022-09-22T07:14:58.945Z,100179.00
2022-09-22T07:17:28.267Z,100184.06
2022-09-22T07:19:57.642Z,100173.41
2022-09-22T07:22:26.935Z,100177.19
2022-09-22T07:24:55.872Z,100169.97
2022-09-22T07:27:26.351Z,100166.31
2022-09-22T07:29:57.562Z,100176.25
2022-09-22T07:32:30.262Z,100160.78
2022-09-22T07:34:59.583Z,100171.09
2022-09-22T07:37:36.171Z,100164.59
2022-09-22T07:40:05.948Z,100170.94
2022-09-22T07:42:36.272Z,100164.69
2022-09-22T07:45:15.421Z,100163.84
2022-09-22T07:48:16.186Z,100167.25
2022-09-22T07:50:45.207Z,100168.09
2022-09-22T07:53:14.230Z,100167.88
2022-09-22T07:55:43.276Z,100166.09
2022-09-22T07:58:17.262Z,100156.94
2022-09-22T08:00:46.546Z,100161.38
2022-09-22T08:03:16.456Z,100156.16
2022-09-22T08:05:47.017Z,100166.06
2022-09-22T08:08:16.917Z,100156.28
2022-09-22T08:10:46.641Z,100143.13
2022-09-22T08:13:23.994Z,100147.88
2022-09-22T08:16:04.229Z,100149.66
2022-09-22T08:18:38.016Z,100147.25
2022-09-22T08:21:20.201Z,100150.03
2022-09-22T08:33:54.776Z,100137.94
2022-09-22T08:36:25.862Z,100148.31
2022-09-22T08:38:56.171Z,100141.38
2022-09-22T08:41:38.485Z,100141.72
2022-09-22T08:44:22.949Z,100140.75
2022-09-22T08:46:56.096Z,100140.31
2022-09-22T08:49:46.586Z,100140.34
2022-09-22T08:52:26.631Z,100144.59
2022-09-22T08:54:59.827Z,100145.22
2022-09-22T08:57:57.029Z,100152.16
2022-09-22T09:00:43.470Z,100151.94
2022-09-22T09:03:34.037Z,100149.59
2022-09-22T09:06:31.723Z,100144.81
2022-09-22T09:09:53.222Z,100145.34
2022-09-22T09:13:34.092Z,100141.13
2022-09-22T09:16:25.736Z,100142.78
2022-09-22T09:19:03.444Z,100147.28
2022-09-22T09:21:34.436Z,100149.16
2022-09-22T09:27:04.572Z,100141.28
2022-09-22T09:29:40.387Z,100136.50
2022-09-22T09:32:21.405Z,100140.72
2022-09-22T09:34:55.719Z,100126.72
2022-09-22T09:37:25.624Z,100130.91
2022-09-22T09:39:55.104Z,100123.19
2022-09-22T09:42:31.480Z,100128.97
2022-09-22T09:45:02.799Z,100135.31
2022-09-22T09:48:02.176Z,100125.78
2022-09-22T09:50:32.980Z,100131.56
2022-09-22T09:53:01.983Z,100123.31
2022-09-22T09:55:31.722Z,100117.66
2022-09-22T09:58:07.182Z,100129.78
2022-09-22T10:00:53.786Z,100121.81
2022-09-22T10:03:28.729Z,100127.34
2022-09-22T10:06:03.017Z,100119.66
2022-09-22T10:08:35.111Z,100114.84
2022-09-22T10:11:05.430Z,100105.50
2022-09-22T10:13:37.319Z,100109.44
2022-09-22T10:16:25.130Z,100102.50
2022-09-22T10:19:12.808Z,100107.22
2022-09-22T10:21:43.136Z,100100.31
2022-09-22T10:24:30.530Z,100099.69
2022-09-22T10:27:02.581Z,100088.81
2022-09-22T10:29:34.380Z,100091.13
2022-09-22T10:32:15.000Z,100089.00
2022-09-22T10:37:26.800Z,100091.13
2022-09-22T10:40:00.095Z,100090.63
2022-09-22T10:42:37.432Z,100088.00
2022-09-22T10:45:10.994Z,100083.78
2022-09-22T10:47:55.854Z,100090.63
2022-09-22T10:50:39.202Z,100078.72
2022-09-22T10:53:28.480Z,100074.59
2022-09-22T10:56:09.462Z,100086.56
2022-09-22T10:59:18.509Z,100077.88
2022-09-22T11:02:03.996Z,100079.84
2022-09-22T11:04:55.436Z,100074.66
2022-09-22T11:08:13.980Z,100073.66
2022-09-22T11:11:12.066Z,100069.19
2022-09-22T11:13:53.780Z,100068.94
2022-09-22T11:16:52.245Z,100063.16
2022-09-22T11:20:05.556Z,100056.78
2022-09-22T11:22:57.304Z,100058.59
2022-09-22T11:25:46.406Z,100053.41
2022-09-22T11:28:39.348Z,100062.75
2022-09-22T11:31:10.580Z,100047.28
2022-09-22T11:34:10.758Z,100050.22
2022-09-22T11:36:51.914Z,100046.25
2022-09-22T11:39:39.820Z,100044.66
2022-09-22T11:42:19.996Z,100043.09
2022-09-22T11:45:04.212Z,100047.56
2022-09-22T11:47:58.948Z,100042.81
2022-09-22T11:50:51.270Z,100038.34
2022-09-22T11:53:46.702Z,100034.94
2022-09-22T11:56:38.313Z,100029.66
2022-09-22T11:59:30.205Z,100032.50
2022-09-22T12:02:04.732Z,100025.94
2022-09-22T12:04:39.440Z,100022.81
2022-09-22T12:07:16.373Z,100010.91
2022-09-22T12:09:51.104Z,100015.38
2022-09-22T12:12:23.237Z,100017.53
2022-09-22T12:15:01.166Z,100013.28
2022-09-22T12:17:39.534Z,100011.25
2022-09-22T12:20:34.588Z,100006.81
2022-09-22T12:23:35.165Z,100005.03
2022-09-22T12:26:10.577Z,99996.88
2022-09-22T12:28:42.579Z,99990.84
2022-09-22T12:31:15.410Z,99990.34
2022-09-22T12:33:51.047Z,100001.94
2022-09-22T12:36:29.689Z,100000.31
2022-09-22T12:39:10.514Z,99996.63
2022-09-22T12:41:49.282Z,99992.38
2022-09-22T12:44:22.807Z,99993.44
2022-09-22T12:46:56.599Z,99992.91
2022-09-22T12:49:25.963Z,99995.81
2022-09-22T12:51:55.083Z,99986.88
2022-09-22T12:54:48.195Z,99987.91
2022-09-22T12:57:46.192Z,99980.78
2022-09-22T13:00:32.265Z,99984.44
2022-09-22T13:03:50.382Z,99965.44
2022-09-22T13:06:55.758Z,99973.94
2022-09-22T13:09:28.523Z,99972.34
2022-09-22T13:12:29.136Z,99977.38
2022-09-22T13:15:16.686Z,99970.81
2022-09-22T13:17:48.435Z,99957.59
2022-09-22T13:20:26.689Z,99964.69
2022-09-22T13:22:56.764Z,99964.69
2022-09-22T13:25:28.921Z,99961.72
2022-09-22T13:28:15.250Z,99957.25
2022-09-22T13:30:46.373Z,99952.50
2022-09-22T13:33:25.328Z,99955.41
2022-09-22T13:36:03.821Z,99950.63
2022-09-22T13:38:37.275Z,99951.72
2022-09-22T13:41:13.534Z,99954.34
2022-09-22T13:43:46.647Z,99941.66
2022-09-22T13:46:24.286Z,99932.16
2022-09-22T13:48:55.251Z,99944.81
2022-09-22T13:51:27.802Z,99939.81
2022-09-22T13:53:58.612Z,99935.59
2022-09-22T13:56:28.074Z,99925.59
2022-09-22T13:59:00.197Z,99914.78
2022-09-22T14:01:31.810Z,99920.59
2022-09-22T14:04:00.907Z,99923.53
2022-09-22T14:06:33.868Z,99919.56
2022-09-22T14:09:03.162Z,99916.41
2022-09-22T14:11:33.540Z,99917.22
2022-09-22T14:14:04.431Z,99912.75
2022-09-22T14:16:39.880Z,99916.47
2022-09-22T14:19:16.163Z,99919.66
2022-09-22T14:21:51.307Z,99914.66
2022-09-22T14:24:20.823Z,99914.91
2022-09-22T14:26:52.807Z,99909.63
2022-09-22T14:29:27.078Z,99911.75
2022-09-22T14:32:02.775Z,99909.13
2022-09-22T14:34:34.467Z,99902.81
2022-09-22T14:37:20.504Z,99900.44
2022-09-22T14:39:50.809Z,99900.44
2022-09-22T14:42:25.706Z,99893.31
2022-09-22T14:45:18.496Z,99885.94
2022-09-22T14:47:48.328Z,99895.47
2022-09-22T14:50:20.259Z,99889.16
2022-09-22T14:52:57.574Z,99887.34
2022-09-22T14:55:34.434Z,99875.47
2022-09-22T14:58:07.640Z,99888.66
2022-09-22T15:00:54.555Z,99876.25
2022-09-22T15:03:29.409Z,99870.22
2022-09-22T15:06:08.656Z,99869.94
2022-09-22T15:08:39.276Z,99869.13
2022-09-22T15:11:09.115Z,99874.09
2022-09-22T15:13:42.942Z,99866.47
2022-09-22T15:16:37.159Z,99869.09
2022-09-22T15:19:06.705Z,99870.72
2022-09-22T15:21:41.252Z,99869.13
2022-09-22T15:24:12.859Z,99869.19
2022-09-22T15:26:44.628Z,99867.09
2022-09-22T15:29:17.331Z,99870.78
2022-09-22T15:31:47.124Z,99874.22
2022-09-22T15:34:16.524Z,99865.50
2022-09-22T15:36:49.989Z,99868.69
2022-09-22T15:39:24.399Z,99876.59
2022-09-22T15:41:55.322Z,99859.72
2022-09-22T15:44:24.296Z,99858.66
2022-09-22T15:46:55.170Z,99854.19
2022-09-22T15:49:26.467Z,99860.50
2022-09-22T15:51:56.776Z,99856.56
2022-09-22T15:54:27.552Z,99852.63
2022-09-22T15:56:59.210Z,99850.00
2022-09-22T15:59:32.507Z,99857.38
2022-09-22T16:02:02.745Z,99851.06
2022-09-22T16:04:33.715Z,99851.88
2022-09-22T16:07:06.080Z,99853.16
2022-09-22T16:09:38.616Z,99850.81
2022-09-22T16:12:11.006Z,99853.44
2022-09-22T16:14:42.516Z,99852.66
2022-09-22T16:17:11.494Z,99844.47
2022-09-22T16:19:40.468Z,99840.81
2022-09-22T16:22:09.431Z,99840.28
2022-09-22T16:24:39.760Z,99835.00
2022-09-22T16:27:08.688Z,99839.22
2022-09-22T16:29:38.399Z,99838.94
2022-09-22T16:32:07.901Z,99830.53
2022-09-22T16:34:37.405Z,99830.81
2022-09-22T16:37:06.444Z,99835.28
2022-09-22T16:39:35.392Z,99837.66
2022-09-22T16:42:06.275Z,99840.81
2022-09-22T16:44:35.230Z,99844.50
2022-09-22T16:47:04.343Z,99847.16
2022-09-22T16:49:34.133Z,99840.03
2022-09-22T16:52:03.225Z,99846.63
2022-09-22T16:54:34.512Z,99840.84
2022-09-22T16:57:04.996Z,99841.66
2022-09-22T16:59:34.487Z,99838.22
2022-09-22T17:02:03.647Z,99842.97
2022-09-22T17:04:33.043Z,99839.53
2022-09-22T17:07:02.059Z,99845.09
2022-09-22T17:09:32.218Z,99840.06
2022-09-22T17:12:06.559Z,99836.91
2022-09-22T17:14:37.061Z,99840.06
2022-09-22T17:17:07.505Z,99842.69
2022-09-22T17:19:36.625Z,99841.09
2022-09-22T17:22:05.720Z,99845.59
2022-09-22T17:24:34.693Z,99848.50
2022-09-22T17:27:03.688Z,99840.06
2022-09-22T17:29:33.227Z,99838.75
2022-09-22T17:32:05.804Z,99847.19
2022-09-22T17:34:53.012Z,99841.94
2022-09-22T17:37:40.264Z,99842.72
2022-09-22T17:40:27.771Z,99842.97
2022-09-22T17:43:15.300Z,99850.09
2022-09-22T17:46:02.908Z,99840.66
2022-09-22T17:49:08.897Z,99847.72
2022-09-22T17:52:13.751Z,99849.31
2022-09-22T17:55:09.686Z,99845.88
2022-09-22T17:57:57.332Z,99856.13
2022-09-22T18:00:44.543Z,99851.91
2022-09-22T18:03:31.713Z,99850.84
2022-09-22T18:06:20.938Z,99851.38
2022-09-22T18:09:08.338Z,99856.91
2022-09-22T18:11:55.513Z,99857.16
2022-09-22T18:14:45.993Z,99863.47
2022-09-22T18:17:40.218Z,99860.81
2022-09-22T18:20:27.954Z,99857.63
2022-09-22T18:23:16.743Z,99850.78
2022-09-22T18:26:04.356Z,99856.00
2022-09-22T18:28:54.026Z,99861.78
2022-09-22T18:31:42.003Z,99855.16
2022-09-22T18:34:31.831Z,99861.44
2022-09-22T18:37:20.504Z,99859.06
2022-09-22T18:40:12.600Z,99862.19
2022-09-22T18:43:00.348Z,99868.97
2022-09-22T18:45:47.706Z,99866.34
2022-09-22T18:48:34.795Z,99865.53
2022-09-22T18:51:22.282Z,99863.41
2022-09-22T18:54:15.325Z,99875.19
2022-09-22T18:57:04.634Z,99881.00
2022-09-22T18:59:52.374Z,99874.13
2022-09-22T19:02:39.957Z,99874.06
2022-09-22T19:05:28.379Z,99880.63
2022-09-22T19:08:15.560Z,99878.00
2022-09-22T19:11:03.134Z,99882.34
2022-09-22T19:13:52.713Z,99883.41
2022-09-22T19:16:42.149Z,99878.91
2022-09-22T19:19:29.603Z,99885.94
2022-09-22T19:22:18.077Z,99882.75
2022-09-22T19:25:06.816Z,99884.31
2022-09-22T19:27:54.712Z,99888.44
2022-09-22T19:30:43.637Z,99878.41
2022-09-22T19:33:31.122Z,99892.53
2022-09-22T19:36:18.353Z,99871.28
2022-09-22T19:39:08.485Z,99884.56
2022-09-22T19:41:56.095Z,99878.50
2022-09-22T19:44:43.572Z,99878.41
2022-09-22T19:47:32.161Z,99878.78
2022-09-22T19:50:20.022Z,99876.28
2022-09-22T19:53:08.875Z,99870.91
2022-09-22T19:55:56.500Z,99867.69
2022-09-22T19:58:44.878Z,99872.38
2022-09-22T20:01:35.469Z,99875.19
2022-09-22T20:04:24.506Z,99870.44
2022-09-22T20:07:12.150Z,99873.31
2022-09-22T20:10:02.110Z,99871.75
2022-09-22T20:12:50.085Z,99868.56
2022-09-22T20:15:38.136Z,99875.91
2022-09-22T20:18:25.843Z,99871.13
2022-09-22T20:21:15.969Z,99873.19
2022-09-22T20:24:05.064Z,99876.31
2022-09-22T20:26:54.307Z,99865.78
2022-09-22T20:29:41.818Z,99862.84
2022-09-22T20:32:32.427Z,99864.63
2022-09-22T20:35:21.991Z,99864.09
2022-09-22T20:38:12.755Z,99860.91
2022-09-22T20:41:02.629Z,99866.59
2022-09-22T20:43:50.793Z,99868.13
2022-09-22T20:46:38.262Z,99861.22
2022-09-22T20:49:26.091Z,99856.47
2022-09-22T20:52:15.579Z,99855.38
2022-09-22T20:55:04.674Z,99847.47
2022-09-22T20:57:51.853Z,99852.63
2022-09-22T21:00:38.991Z,99844.97
2022-09-22T21:03:26.373Z,99848.31
2022-09-22T21:06:15.893Z,99841.97
2022-09-22T21:09:20.786Z,99846.09
2022-09-22T21:12:09.661Z,99838.50
2022-09-22T21:14:57.508Z,99840.56
2022-09-22T21:17:44.879Z,99832.94
2022-09-22T21:20:32.283Z,99830.03
2022-09-22T21:23:19.479Z,99837.06
2022-09-22T21:26:08.185Z,99834.38
2022-09-22T21:28:57.221Z,99835.88
2022-09-22T21:31:45.971Z,99832.97
2022-09-22T21:34:33.231Z,99826.38
2022-09-22T21:37:23.484Z,99823.72
2022-09-22T21:40:11.138Z,99823.16
2022-09-22T21:42:58.666Z,99820.75
2022-09-22T21:45:47.402Z,99816.34
2022-09-22T21:48:37.112Z,99811.81
2022-09-22T21:51:24.726Z,99804.69
2022-09-22T21:54:15.772Z,99811.41
2022-09-22T21:57:03.210Z,99808.25
2022-09-22T21:59:52.881Z,99800.63
2022-09-22T22:03:14.613Z,99795.88
2022-09-22T22:06:08.532Z,99790.81
2022-09-22T22:09:02.360Z,99796.53
2022-09-22T22:11:53.841Z,99793.34
2022-09-22T22:14:41.171Z,99790.41
2022-09-22T22:17:28.425Z,99791.91
2022-09-22T22:20:17.189Z,99788.78
2022-09-22T22:23:04.773Z,99784.78
2022-09-22T22:25:59.024Z,99784.25
2022-09-22T22:28:46.781Z,99788.91
2022-09-22T22:31:35.244Z,99784.16
2022-09-22T22:34:25.601Z,99784.63
2022-09-22T22:37:14.344Z,99788.75
2022-09-22T22:40:02.462Z,99783.00
2022-09-22T22:42:50.137Z,99782.19
2022-09-22T22:45:37.333Z,99784.50
2022-09-22T22:48:24.889Z,99777.03
2022-09-22T22:51:15.556Z,99784.31
2022-09-22T22:54:05.738Z,99778.75
2022-09-22T22:56:53.310Z,99776.84
2022-09-22T22:59:40.524Z,99788.56
2022-09-22T23:02:31.054Z,99785.84
2022-09-22T23:05:18.812Z,99789.75
2022-09-22T23:08:06.548Z,99792.81
2022-09-22T23:11:02.606Z,99792.75
2022-09-22T23:13:53.659Z,99785.00
2022-09-22T23:16:44.211Z,99783.13
2022-09-22T23:19:31.444Z,99788.81
2022-09-22T23:22:18.577Z,99782.78
2022-09-22T23:25:06.596Z,99783.81
2022-09-22T23:27:55.250Z,99787.69
2022-09-22T23:30:43.037Z,99779.28
2022-09-22T23:33:31.183Z,99781.56
2022-09-22T23:36:20.605Z,99777.06
2022-09-22T23:39:08.127Z,99776.94
2022-09-22T23:41:55.610Z,99770.38
2022-09-22T23:44:44.183Z,99770.38
2022-09-22T23:47:32.910Z,99770.38
2022-09-22T23:50:20.465Z,99763.34
2022-09-22T23:53:08.424Z,99763.34
2022-09-22T23:55:55.656Z,99760.75
2022-09-22T23:58:42.957Z,99761.75
